Shaktoolik, AK

2:16 AM AKST on February 22, 2017 (GMT -0900)
Unalakleet

Weather History for PAUN - February, 2012

Change the Weather History Date:

Friday, February 17, 2012

  Actual Average Record
Temperature  
Mean Temperature 26 °F -  
Max Temperature 30 °F 9 °F 39 °F (2015)
Min Temperature 21 °F -4 °F -45 °F (1964)
Degree Days  
Heating Degree Days 40    
Moisture  
Dew Point 12 °F    
Average Humidity 54    
Maximum Humidity 59    
Minimum Humidity 47    
Precipitation  
Precipitation 0.00 in - - ()
Sea Level Pressure  
Sea Level Pressure 29.53 in    
Wind  
Wind Speed 12 mph (ENE)    
Max Wind Speed 22 mph    
Max Gust Speed 29 mph    
Visibility 10 miles    
Events      
Averages and records for this station are not official NWS values.
T = Trace of Precipitation, MM = Missing Value Source: NWS Daily Summary

Daily Weather History Graph

Daily Weather History Graph

Search for Another Location

Airport or City:

Trip Planner

Search our weather history database for the weather conditions in past years. The results will help you decide how hot, cold, wet, or windy it might be!

Date:

Astronomy

Feb. 17, 2012 Rise Set
Actual Time 9:31 AM AKST 6:24 PM AKST
Civil Twilight 8:41 AM AKST 7:14 PM AKST
Nautical Twilight 7:46 AM AKST 8:09 PM AKST
Astronomical Twilight 6:51 AM AKST 9:04 PM AKST
Moon 7:52 AM AKST (2/17) 1:12 PM AKST (2/17)
Length of Visible Light 10h 33m
Length of Day
8h 52m
Waning Crescent, 18% of the Moon is Illuminated
Feb 17
Waning Crescent
Feb 21
New
Feb 29
First Quarter
Mar 8
Full
Mar 14
Last Quarter

Hourly Weather History & Observations

Time (AKST) Temp. Windchill Dew Point Humidity Pressure Visibility Wind Dir Wind Speed Gust Speed Precip Events Conditions
12:16 AM 23.0 °F 14.7 °F 10.4 °F 59% 29.49 in 10.0 mi ENE 6.9 mph - N/A   Clear
12:36 AM 21.2 °F 10.9 °F 8.6 °F 58% 29.50 in 10.0 mi ESE 9.2 mph - N/A   Clear
12:56 AM 24.8 °F 16.1 °F 12.2 °F 59% 29.50 in 10.0 mi ENE 8.1 mph - N/A   Clear
1:16 AM 24.8 °F 14.6 °F 10.4 °F 54% 29.50 in 10.0 mi East 10.4 mph - N/A   Clear
1:36 AM 24.8 °F 16.9 °F 10.4 °F 54% 29.51 in 10.0 mi ENE 6.9 mph - N/A   Scattered Clouds
1:56 AM 24.8 °F 14.6 °F 10.4 °F 54% 29.51 in 10.0 mi NE 10.4 mph - N/A   Scattered Clouds
2:16 AM 24.8 °F 17.9 °F 10.4 °F 54% 29.51 in 10.0 mi NNE 5.8 mph - N/A   Mostly Cloudy
2:36 AM 23.0 °F 13.9 °F 10.4 °F 59% 29.51 in 10.0 mi ENE 8.1 mph - N/A   Partly Cloudy
2:56 AM 21.2 °F 10.9 °F 8.6 °F 58% 29.51 in 10.0 mi East 9.2 mph - N/A   Scattered Clouds
3:16 AM 21.2 °F 13.6 °F 8.6 °F 58% 29.51 in 10.0 mi ENE 5.8 mph - N/A   Overcast
3:36 AM 23.0 °F - 10.4 °F 59% 29.52 in 10.0 mi Calm Calm - N/A   Mostly Cloudy
3:56 AM 23.0 °F 12.4 °F 8.6 °F 54% 29.51 in 10.0 mi ENE 10.4 mph - N/A   Scattered Clouds
4:16 AM 23.0 °F 15.8 °F 10.4 °F 59% 29.51 in 10.0 mi ENE 5.8 mph - N/A   Scattered Clouds
4:36 AM 23.0 °F 14.7 °F 10.4 °F 59% 29.52 in 10.0 mi ENE 6.9 mph - N/A   Clear
4:56 AM 23.0 °F 17.0 °F 10.4 °F 59% 29.52 in 10.0 mi ENE 4.6 mph - N/A   Scattered Clouds
5:16 AM 24.8 °F 16.9 °F 12.2 °F 59% 29.51 in 10.0 mi East 6.9 mph - N/A   Overcast
5:36 AM 24.8 °F 12.9 °F 12.2 °F 59% 29.51 in 10.0 mi East 13.8 mph - N/A   Overcast
5:56 AM 24.8 °F 12.9 °F 12.2 °F 59% 29.51 in 10.0 mi East 13.8 mph - N/A   Overcast
6:16 AM 24.8 °F 12.4 °F 12.2 °F 59% 29.51 in 10.0 mi ENE 15.0 mph - N/A   Overcast
6:36 AM 26.6 °F 13.8 °F 12.2 °F 55% 29.51 in 10.0 mi ENE 17.3 mph - N/A   Mostly Cloudy
6:56 AM 24.8 °F 13.4 °F 12.2 °F 59% 29.52 in 10.0 mi East 12.7 mph - N/A   Partly Cloudy
7:16 AM 24.8 °F 11.9 °F 10.4 °F 54% 29.52 in 10.0 mi ENE 16.1 mph 19.6 mph N/A   Mostly Cloudy
7:36 AM 26.6 °F 15.2 °F 12.2 °F 55% 29.52 in 10.0 mi ENE 13.8 mph - N/A   Overcast
7:56 AM 26.6 °F 14.3 °F 10.4 °F 51% 29.52 in 10.0 mi East 16.1 mph - N/A   Overcast
8:16 AM 26.6 °F 13.8 °F 12.2 °F 55% 29.53 in 10.0 mi East 17.3 mph - N/A   Overcast
8:36 AM 26.6 °F 14.3 °F 12.2 °F 55% 29.53 in 10.0 mi ENE 16.1 mph - N/A   Overcast
8:56 AM 26.6 °F 13.4 °F 12.2 °F 55% 29.53 in 10.0 mi ENE 18.4 mph - N/A   Overcast
9:16 AM 26.6 °F 14.3 °F 12.2 °F 55% 29.54 in 10.0 mi ENE 16.1 mph - N/A   Overcast
9:36 AM 26.6 °F 13.1 °F 12.2 °F 55% 29.54 in 10.0 mi East 19.6 mph 23.0 mph N/A   Overcast
9:56 AM 26.6 °F 13.8 °F 12.2 °F 55% 29.54 in 10.0 mi East 17.3 mph - N/A   Overcast
10:16 AM 26.6 °F 13.4 °F 12.2 °F 55% 29.54 in 10.0 mi East 18.4 mph - N/A   Overcast
10:36 AM 26.6 °F 13.1 °F 12.2 °F 55% 29.54 in 10.0 mi East 19.6 mph 24.2 mph N/A   Overcast
10:56 AM 26.6 °F 12.4 °F 12.2 °F 55% 29.54 in 10.0 mi East 21.9 mph 25.3 mph N/A   Overcast
11:16 AM 28.4 °F 16.2 °F 12.2 °F 51% 29.55 in 10.0 mi ENE 17.3 mph - N/A   Overcast
11:36 AM 28.4 °F 16.2 °F 12.2 °F 51% 29.55 in 10.0 mi ENE 17.3 mph - N/A   Overcast
11:56 AM 28.4 °F 15.4 °F 14.0 °F 55% 29.55 in 10.0 mi East 19.6 mph - N/A   Overcast
12:16 PM 28.4 °F 15.8 °F 12.2 °F 51% 29.55 in 10.0 mi East 18.4 mph - N/A   Overcast
12:36 PM 28.4 °F 16.2 °F 12.2 °F 51% 29.56 in 10.0 mi East 17.3 mph - N/A   Overcast
12:56 PM 28.4 °F 15.8 °F 12.2 °F 51% 29.55 in 10.0 mi East 18.4 mph - N/A   Overcast
1:16 PM 28.4 °F 15.4 °F 12.2 °F 51% 29.55 in 10.0 mi East 19.6 mph - N/A   Overcast
1:36 PM 28.4 °F 16.2 °F 12.2 °F 51% 29.55 in 10.0 mi East 17.3 mph - N/A   Overcast
1:56 PM 28.4 °F 17.0 °F 12.2 °F 51% 29.55 in 10.0 mi ENE 15.0 mph - N/A   Overcast
2:16 PM 28.4 °F 17.0 °F 12.2 °F 51% 29.55 in 10.0 mi ENE 15.0 mph - N/A   Overcast
2:36 PM 28.4 °F 15.8 °F 12.2 °F 51% 29.54 in 10.0 mi East 18.4 mph 23.0 mph N/A   Overcast
2:56 PM 28.4 °F 15.8 °F 12.2 °F 51% 29.54 in 10.0 mi East 18.4 mph - N/A   Overcast
3:16 PM 30.2 °F 18.1 °F 12.2 °F 47% 29.53 in 10.0 mi East 18.4 mph - N/A   Overcast
3:36 PM 30.2 °F 17.4 °F 14.0 °F 51% 29.53 in 10.0 mi East 20.7 mph - N/A   Overcast
3:56 PM 30.2 °F 17.4 °F 12.2 °F 47% 29.53 in 10.0 mi East 20.7 mph - N/A   Scattered Clouds
4:16 PM 30.2 °F 17.1 °F 12.2 °F 47% 29.52 in 10.0 mi East 21.9 mph 25.3 mph N/A   Clear
4:36 PM 28.4 °F 15.1 °F 12.2 °F 51% 29.52 in 10.0 mi East 20.7 mph - N/A   Clear
4:56 PM 30.2 °F 17.1 °F 14.0 °F 51% 29.52 in 10.0 mi East 21.9 mph 28.8 mph N/A   Clear
5:16 PM 28.4 °F 14.7 °F 12.2 °F 51% 29.52 in 10.0 mi East 21.9 mph 26.5 mph N/A   Clear
5:36 PM 28.4 °F 15.1 °F 12.2 °F 51% 29.53 in 10.0 mi East 20.7 mph 25.3 mph N/A   Clear
5:56 PM 28.4 °F 16.6 °F 12.2 °F 51% 29.54 in 10.0 mi East 16.1 mph 19.6 mph N/A   Clear
6:16 PM 26.6 °F 13.1 °F 12.2 °F 55% 29.54 in 10.0 mi East 19.6 mph 24.2 mph N/A   Partly Cloudy
6:36 PM 26.6 °F 15.2 °F 12.2 °F 55% 29.54 in 10.0 mi ENE 13.8 mph - N/A   Mostly Cloudy
6:56 PM 26.6 °F 14.7 °F 10.4 °F 51% 29.54 in 10.0 mi ENE 15.0 mph - N/A   Partly Cloudy
7:16 PM 26.6 °F 14.7 °F 10.4 °F 51% 29.55 in 10.0 mi ENE 15.0 mph - N/A   Clear
7:36 PM 26.6 °F 15.7 °F 10.4 °F 51% 29.54 in 10.0 mi ENE 12.7 mph - N/A   Clear
7:56 PM 24.8 °F 11.9 °F 10.4 °F 54% 29.54 in 10.0 mi ENE 16.1 mph - N/A   Clear
8:16 PM 24.8 °F 12.9 °F 10.4 °F 54% 29.54 in 10.0 mi ENE 13.8 mph - N/A   Clear
8:36 PM 24.8 °F 11.5 °F 10.4 °F 54% 29.55 in 10.0 mi East 17.3 mph - N/A   Clear
8:56 PM 26.6 °F 13.4 °F 12.2 °F 55% 29.55 in 10.0 mi East 18.4 mph - N/A   Mostly Cloudy
9:16 PM 24.8 °F 12.4 °F 10.4 °F 54% 29.55 in 10.0 mi ENE 15.0 mph - N/A   Scattered Clouds
9:36 PM 24.8 °F 12.4 °F 10.4 °F 54% 29.55 in 10.0 mi East 15.0 mph - N/A   Partly Cloudy
9:56 PM 24.8 °F 13.4 °F 10.4 °F 54% 29.55 in 10.0 mi ENE 12.7 mph - N/A   Clear
10:16 PM 24.8 °F 11.5 °F 10.4 °F 54% 29.54 in 10.0 mi East 17.3 mph - N/A   Clear
10:36 PM 23.0 °F 9.6 °F 8.6 °F 54% 29.54 in 10.0 mi East 16.1 mph - N/A   Partly Cloudy
10:56 PM 24.8 °F 10.7 °F 10.4 °F 54% 29.54 in 10.0 mi East 19.6 mph - N/A   Partly Cloudy
11:16 PM 23.0 °F 11.1 °F 8.6 °F 54% 29.54 in 10.0 mi ENE 12.7 mph - N/A   Clear
11:36 PM 23.0 °F 11.1 °F 10.4 °F 59% 29.54 in 10.0 mi East 12.7 mph - N/A   Clear
11:56 PM 23.0 °F 10.1 °F 10.4 °F 59% 29.54 in 10.0 mi East 15.0 mph - N/A   Scattered Clouds